Adams Field
KLIT : now visible

Airfield :











YOU CAN JOIN US ON...

 
LOGIN :

Register | Disclaimer

   EN    FR    IT 

 









Legend :    VFR   Marginal VFR   IFR   Intensive IFR   Very Intensive IFR
Visi :
Ceiling :
>= 8 km
>= 3000ft
5 to 8 km
1000 to 3000 ft
1500m to 5 km
500 to 1000 ft
800 to 1500m
200 to 500 ft
< 800m
< 200 ft
Symbols :   Thunderstorms  Fog  Heavy snow  Heavy precipitations  Wind > 20 kt






- Airport Elevation : 262 ft
- IATA code : LIT


KLIT - Adams Field

CURRENT METAR :
  • 072026Z 19007KT 10SM BKN018 BKN027 OVC050 24/21 A2986 RMK AO2 T02390206

EXPIRED METARs :
  • 071953Z 22004KT 10SM BKN010 BKN015 OVC045 23/21 A2988 RMK AO2 RAE33 SLP118 P0000 T02280206
  • 071853Z 19007KT 3SM -RA BR BKN008 OVC015 22/21 A2990 RMK AO2 RAB29 SLP126 P0000 T02170206
  • 071835Z 20006KT 4SM -RA BR BKN008 OVC016 22/21 A2992 RMK AO2 RAB29 P0000 T02170206
  • 071829Z 20007KT 4SM -RA BR BKN011 OVC016 22/20 A2992 RMK AO2 RAB29 P0000 T02220200
  • 071753Z 20007KT 10SM OVC011 22/20 A2993 RMK AO2 SLP134 60032 T02220200 10222 20172 58014

TAF KLIT
Valid from the 07 at 18:00 until the 08 at 18:00 UTC


071733Z 0718/0818 21008KT P6SM VCSH OVC010
FM080000 20007KT P6SM BKN070
FM080400 VRB05KT P6SM SCT040
FM080900 VRB05KT P6SM SCT040 WS020/26035KT
FM081200 VRB05KT P6SM FEW090



MET'MAP, your aeronautical weather chart ! - Copyright ORBIFLY December 2007 - Disclaimer

ORBIFLY MET'MAP TEAM :

Programming & Development : Alexandra Zaïnal
Concept & original design : Baudouin d'Aumeries
Assistance for programming : Marc-Olivier Méhu
Technical & hardware support : Manuel Goepfert

Contact : metmap@orbifly.com




SOURCES & CREDITS :

   NOAA       Earth
Advisory